createdAt,value
2017-10-07T00:01:59.503Z,101569.60
2017-10-07T00:04:26.847Z,101574.95
2017-10-07T00:06:54.413Z,101578.14
2017-10-07T00:09:21.246Z,101571.72
2017-10-07T00:11:48.852Z,101564.41
2017-10-07T00:14:16.429Z,101569.32
2017-10-07T00:16:43.411Z,101563.55
2017-10-07T00:19:11.057Z,101569.63
2017-10-07T00:21:37.948Z,101566.28
2017-10-07T00:24:04.861Z,101560.55
2017-10-07T00:26:31.692Z,101554.41
2017-10-07T00:28:59.323Z,101554.91
2017-10-07T00:31:26.154Z,101554.23
2017-10-07T00:33:53.058Z,101545.85
2017-10-07T00:36:19.943Z,101549.80
2017-10-07T00:38:47.578Z,101549.58
2017-10-07T00:41:14.432Z,101547.22
2017-10-07T00:43:41.303Z,101548.00
2017-10-07T00:46:08.161Z,101548.01
2017-10-07T00:48:35.008Z,101541.02
2017-10-07T00:51:01.847Z,101543.48
2017-10-07T00:53:28.809Z,101537.44
2017-10-07T00:55:55.755Z,101537.11
2017-10-07T00:58:23.443Z,101537.36
2017-10-07T01:00:51.152Z,101534.41
2017-10-07T01:03:18.090Z,101539.66
2017-10-07T01:05:45.714Z,101531.76
2017-10-07T01:08:12.654Z,101536.49
2017-10-07T01:10:39.604Z,101526.84
2017-10-07T01:13:07.237Z,101523.43
2017-10-07T01:15:34.119Z,101517.69
2017-10-07T01:18:01.108Z,101516.34
2017-10-07T01:20:28.914Z,101508.63
2017-10-07T01:22:55.803Z,101504.73
2017-10-07T01:25:22.767Z,101507.73
2017-10-07T01:27:49.729Z,101504.32
2017-10-07T01:30:16.671Z,101501.59
2017-10-07T01:32:43.578Z,101506.28
2017-10-07T01:35:10.478Z,101501.02
2017-10-07T01:37:37.388Z,101494.64
2017-10-07T01:40:04.260Z,101496.25
2017-10-07T01:42:31.212Z,101493.81
2017-10-07T01:44:58.054Z,101488.46
2017-10-07T01:47:24.941Z,101487.02
2017-10-07T01:49:51.782Z,101491.22
2017-10-07T01:52:18.639Z,101483.52
2017-10-07T01:54:45.510Z,101474.09
2017-10-07T01:57:12.392Z,101463.70
2017-10-07T01:59:39.215Z,101462.91
2017-10-07T02:02:06.077Z,101465.81
2017-10-07T02:04:32.915Z,101467.39
2017-10-07T02:06:59.745Z,101470.95
2017-10-07T02:09:26.569Z,101468.18
2017-10-07T02:11:53.499Z,101472.09
2017-10-07T02:14:20.352Z,101470.13
2017-10-07T02:16:47.986Z,101472.55
2017-10-07T02:19:14.858Z,101476.72
2017-10-07T02:21:41.727Z,101466.28
2017-10-07T02:24:08.575Z,101477.19
2017-10-07T02:26:35.434Z,101472.12
2017-10-07T02:29:02.251Z,101470.32
2017-10-07T02:31:29.160Z,101470.33
2017-10-07T02:33:55.990Z,101466.34
2017-10-07T02:36:22.867Z,101468.30
2017-10-07T02:38:49.767Z,101466.52
2017-10-07T02:41:16.642Z,101466.26
2017-10-07T02:43:44.263Z,101453.67
2017-10-07T02:46:11.113Z,101448.34
2017-10-07T02:48:37.922Z,101451.73
2017-10-07T02:51:04.827Z,101451.67
2017-10-07T02:53:31.703Z,101439.16
2017-10-07T02:55:58.556Z,101436.23
2017-10-07T02:58:25.449Z,101435.90
2017-10-07T03:00:52.289Z,101429.43
2017-10-07T03:03:19.169Z,101439.03
2017-10-07T03:05:46.015Z,101431.55
2017-10-07T03:08:12.921Z,101431.71
2017-10-07T03:10:39.807Z,101425.53
2017-10-07T03:13:06.678Z,101426.92
2017-10-07T03:15:33.529Z,101428.41
2017-10-07T03:18:01.159Z,101423.00
2017-10-07T03:20:28.024Z,101420.32
2017-10-07T03:22:54.898Z,101423.13
2017-10-07T03:25:21.770Z,101423.28
2017-10-07T03:27:48.654Z,101422.89
2017-10-07T03:30:15.487Z,101423.94
2017-10-07T03:32:42.333Z,101426.12
2017-10-07T03:35:09.138Z,101422.49
2017-10-07T03:37:35.975Z,101418.62
2017-10-07T03:40:02.834Z,101414.13
2017-10-07T03:42:29.695Z,101410.23
2017-10-07T03:44:56.508Z,101403.36
2017-10-07T03:47:23.354Z,101402.41
2017-10-07T03:49:50.236Z,101395.45
2017-10-07T03:52:17.107Z,101389.44
2017-10-07T03:54:43.986Z,101392.77
2017-10-07T03:57:10.831Z,101390.73
2017-10-07T03:59:37.701Z,101383.44
2017-10-07T04:02:04.664Z,101384.63
2017-10-07T04:04:31.585Z,101384.67
2017-10-07T04:06:58.436Z,101382.80
2017-10-07T04:09:26.041Z,101384.73
2017-10-07T04:11:52.943Z,101374.80
2017-10-07T04:14:19.764Z,101363.70
2017-10-07T04:16:46.568Z,101368.86
2017-10-07T04:19:13.422Z,101370.28
2017-10-07T04:21:40.332Z,101367.80
2017-10-07T04:24:07.178Z,101365.67
2017-10-07T04:26:34.769Z,101365.03
2017-10-07T04:29:01.618Z,101373.72
2017-10-07T04:31:29.286Z,101373.08
2017-10-07T04:33:56.118Z,101376.02
2017-10-07T04:36:22.954Z,101378.75
2017-10-07T04:38:49.819Z,101384.56
2017-10-07T04:41:16.679Z,101393.20
2017-10-07T04:43:43.538Z,101394.00
2017-10-07T04:46:10.520Z,101392.53
2017-10-07T04:48:37.477Z,101392.97
2017-10-07T04:51:04.402Z,101398.77
2017-10-07T04:53:32.007Z,101398.77
2017-10-07T04:55:58.866Z,101390.95
2017-10-07T04:58:25.700Z,101396.55
2017-10-07T05:00:53.360Z,101391.97
2017-10-07T05:03:20.288Z,101384.59
2017-10-07T05:05:47.178Z,101384.98
2017-10-07T05:08:14.046Z,101387.53
2017-10-07T05:10:40.939Z,101389.31
2017-10-07T05:13:07.841Z,101387.72
2017-10-07T05:15:35.595Z,101373.83
2017-10-07T05:18:02.489Z,101383.38
2017-10-07T05:20:29.475Z,101374.75
2017-10-07T05:22:56.302Z,101379.95
2017-10-07T05:25:23.167Z,101375.73
2017-10-07T05:27:50.071Z,101371.94
2017-10-07T05:30:16.959Z,101363.33
2017-10-07T05:32:43.860Z,101366.69
2017-10-07T05:35:10.695Z,101361.94
2017-10-07T05:37:38.305Z,101359.23
2017-10-07T05:40:05.222Z,101355.97
2017-10-07T05:42:32.100Z,101348.66
2017-10-07T05:44:58.980Z,101333.20
2017-10-07T05:47:25.838Z,101334.64
2017-10-07T05:49:52.647Z,101331.71
2017-10-07T05:52:20.298Z,101324.55
2017-10-07T05:54:47.202Z,101319.07
2017-10-07T05:57:14.206Z,101321.02
2017-10-07T05:59:41.122Z,101318.53
2017-10-07T06:02:08.720Z,101323.98
2017-10-07T06:04:35.614Z,101322.45
2017-10-07T06:07:02.500Z,101323.30
2017-10-07T06:09:29.402Z,101318.77
2017-10-07T06:11:56.346Z,101310.42
2017-10-07T06:14:24.010Z,101302.69
2017-10-07T06:16:50.831Z,101290.73
2017-10-07T06:19:17.742Z,101295.05
2017-10-07T06:21:45.362Z,101294.72
2017-10-07T06:24:12.252Z,101297.50
2017-10-07T06:26:39.081Z,101297.28
2017-10-07T06:29:05.967Z,101298.67
2017-10-07T06:31:32.796Z,101290.42
2017-10-07T06:33:59.627Z,101292.88
2017-10-07T06:36:27.340Z,101297.09
2017-10-07T06:38:54.157Z,101289.09
2017-10-07T06:41:21.042Z,101289.60
2017-10-07T06:43:47.946Z,101284.24
2017-10-07T06:46:14.921Z,101280.92
2017-10-07T06:48:41.747Z,101285.10
2017-10-07T06:51:09.335Z,101279.83
2017-10-07T06:53:36.198Z,101279.77
2017-10-07T06:56:03.088Z,101284.06
2017-10-07T06:58:29.981Z,101281.00
2017-10-07T07:00:57.560Z,101273.36
2017-10-07T07:03:25.126Z,101275.64
2017-10-07T07:05:52.170Z,101272.13
2017-10-07T07:08:19.041Z,101267.80
2017-10-07T07:10:45.891Z,101261.27
2017-10-07T07:13:12.845Z,101268.94
2017-10-07T07:15:39.686Z,101267.79
2017-10-07T07:18:06.554Z,101265.61
2017-10-07T07:20:33.541Z,101250.70
2017-10-07T07:23:00.410Z,101251.08
2017-10-07T07:25:27.320Z,101244.30
2017-10-07T07:27:54.205Z,101234.34
2017-10-07T07:30:21.134Z,101240.95
2017-10-07T07:32:50.229Z,101240.43
2017-10-07T07:35:17.866Z,101234.59
2017-10-07T07:37:44.696Z,101233.20
2017-10-07T07:40:11.559Z,101220.48
2017-10-07T07:42:38.419Z,101229.55
2017-10-07T07:45:05.440Z,101220.25
2017-10-07T07:47:32.263Z,101230.98
2017-10-07T07:49:59.161Z,101218.47
2017-10-07T07:52:26.024Z,101220.52
2017-10-07T07:54:52.900Z,101219.43
2017-10-07T07:57:19.784Z,101207.58
2017-10-07T07:59:46.674Z,101208.36
2017-10-07T08:02:13.585Z,101200.00
2017-10-07T08:04:40.475Z,101192.27
2017-10-07T08:07:07.330Z,101191.61
2017-10-07T08:09:34.309Z,101191.84
2017-10-07T08:12:01.177Z,101190.98
2017-10-07T08:14:28.015Z,101189.14
2017-10-07T08:16:55.578Z,101187.11
2017-10-07T08:19:22.387Z,101181.09
2017-10-07T08:21:49.272Z,101185.25
2017-10-07T08:24:16.087Z,101186.84
2017-10-07T08:26:42.895Z,101179.27
2017-10-07T08:29:09.806Z,101177.20
2017-10-07T08:31:36.660Z,101168.94
2017-10-07T08:34:04.233Z,101176.08
2017-10-07T08:36:31.803Z,101166.80
2017-10-07T08:38:59.384Z,101177.49
2017-10-07T08:41:26.928Z,101174.31
2017-10-07T08:43:53.739Z,101171.45
2017-10-07T08:46:21.303Z,101175.63
2017-10-07T08:48:48.858Z,101166.91
2017-10-07T08:51:15.685Z,101157.78
2017-10-07T08:53:42.514Z,101158.38
2017-10-07T08:56:10.126Z,101156.19
2017-10-07T08:58:37.532Z,101154.59
2017-10-07T09:01:04.351Z,101155.16
2017-10-07T09:03:31.226Z,101139.55
2017-10-07T09:05:58.080Z,101135.76
2017-10-07T09:08:25.439Z,101132.57
2017-10-07T09:10:52.306Z,101124.50
2017-10-07T09:13:19.118Z,101120.93
2017-10-07T09:15:45.964Z,101126.06
2017-10-07T09:18:12.799Z,101117.74
2017-10-07T09:20:39.633Z,101105.96
2017-10-07T09:23:06.444Z,101108.63
2017-10-07T09:25:33.315Z,101107.39
2017-10-07T09:28:00.197Z,101101.06
2017-10-07T09:30:27.755Z,101100.17
2017-10-07T09:32:54.610Z,101095.91
2017-10-07T09:35:21.441Z,101094.98
2017-10-07T09:37:48.337Z,101084.83
2017-10-07T09:40:15.167Z,101074.98
2017-10-07T09:42:42.005Z,101079.09
2017-10-07T09:45:08.836Z,101073.84
2017-10-07T09:47:35.675Z,101067.48
2017-10-07T09:50:02.555Z,101067.16
2017-10-07T09:52:29.418Z,101060.14
2017-10-07T09:54:57.028Z,101043.02
2017-10-07T09:57:23.871Z,101049.66
2017-10-07T09:59:51.449Z,101039.32
2017-10-07T10:02:19.119Z,101034.52
2017-10-07T10:04:47.023Z,101023.74
2017-10-07T10:07:14.618Z,101029.87
2017-10-07T10:09:41.443Z,101028.09
2017-10-07T10:12:08.301Z,101030.22
2017-10-07T10:14:35.888Z,101023.31
2017-10-07T10:17:03.472Z,101027.08
2017-10-07T10:19:31.017Z,101028.67
2017-10-07T10:21:57.850Z,101011.45
2017-10-07T10:24:24.678Z,101013.65
2017-10-07T10:26:51.527Z,101025.09
2017-10-07T10:29:19.104Z,101019.07
2017-10-07T10:31:46.748Z,101018.73
2017-10-07T10:34:13.602Z,101010.48
2017-10-07T10:36:40.479Z,100998.69
2017-10-07T10:39:07.385Z,101004.89
2017-10-07T10:41:34.320Z,101002.66
2017-10-07T10:44:01.113Z,101008.20
2017-10-07T10:46:28.041Z,101006.53
2017-10-07T10:48:55.651Z,100996.13
2017-10-07T10:51:22.511Z,100993.77
2017-10-07T10:53:49.380Z,100997.78
2017-10-07T10:56:16.239Z,100998.08
2017-10-07T10:58:43.099Z,100989.44
2017-10-07T11:01:09.982Z,100989.67
2017-10-07T11:03:36.926Z,100990.63
2017-10-07T11:06:03.744Z,100995.92
2017-10-07T11:08:30.598Z,100998.95
2017-10-07T11:10:57.442Z,100991.98
2017-10-07T11:13:24.268Z,100978.80
2017-10-07T11:15:51.147Z,100976.60
2017-10-07T11:18:18.410Z,100970.36
2017-10-07T11:20:45.279Z,100972.91
2017-10-07T11:23:12.181Z,100960.63
2017-10-07T11:25:39.042Z,100948.52
2017-10-07T11:28:05.923Z,100949.82
2017-10-07T11:30:33.492Z,100943.27
2017-10-07T11:33:01.104Z,100934.31
2017-10-07T11:35:27.966Z,100938.43
2017-10-07T11:37:54.820Z,100947.83
2017-10-07T11:40:21.695Z,100955.36
2017-10-07T11:42:48.569Z,100943.56
2017-10-07T11:45:15.439Z,100933.23
2017-10-07T11:47:42.297Z,100933.03
2017-10-07T11:50:09.181Z,100921.64
2017-10-07T11:52:36.074Z,100916.17
2017-10-07T11:55:03.703Z,100902.95
2017-10-07T11:57:30.561Z,100918.34
2017-10-07T11:59:57.425Z,100909.17
2017-10-07T12:02:24.280Z,100896.34
2017-10-07T12:04:51.160Z,100902.95
2017-10-07T12:07:18.005Z,100891.45
2017-10-07T12:09:44.849Z,100898.98
2017-10-07T12:12:11.688Z,100897.60
2017-10-07T12:14:39.316Z,100892.27
2017-10-07T12:17:06.243Z,100879.14
2017-10-07T12:19:33.124Z,100870.28
2017-10-07T12:21:59.948Z,100872.59
2017-10-07T12:24:27.540Z,100867.27
2017-10-07T12:26:54.435Z,100858.58
2017-10-07T12:29:21.254Z,100856.81
2017-10-07T12:31:48.851Z,100845.21
2017-10-07T12:34:16.612Z,100840.16
2017-10-07T12:36:43.497Z,100840.87
2017-10-07T12:39:10.341Z,100834.84
2017-10-07T12:41:37.156Z,100837.22
2017-10-07T12:44:04.000Z,100832.68
2017-10-07T12:46:30.798Z,100825.15
2017-10-07T12:48:57.611Z,100826.13
2017-10-07T12:51:24.429Z,100815.34
2017-10-07T12:53:51.264Z,100811.38
2017-10-07T12:56:18.726Z,100804.85
2017-10-07T12:58:45.636Z,100801.58
2017-10-07T13:01:13.229Z,100789.53
2017-10-07T13:03:40.060Z,100786.48
2017-10-07T13:06:07.326Z,100784.78
2017-10-07T13:08:35.378Z,100778.17
2017-10-07T13:11:02.236Z,100777.77
2017-10-07T13:13:29.231Z,100771.54
2017-10-07T13:15:56.040Z,100770.44
2017-10-07T13:18:22.833Z,100766.97
2017-10-07T13:20:49.680Z,100756.79
2017-10-07T13:23:16.500Z,100769.37
2017-10-07T13:25:44.064Z,100756.19
2017-10-07T13:28:10.908Z,100747.70
2017-10-07T13:30:37.747Z,100748.14
2017-10-07T13:33:04.639Z,100746.67
2017-10-07T13:35:31.526Z,100745.14
2017-10-07T13:37:59.134Z,100740.06
2017-10-07T13:40:26.083Z,100744.77
2017-10-07T13:42:52.915Z,100739.44
2017-10-07T13:45:19.781Z,100736.95
2017-10-07T13:47:46.636Z,100725.22
2017-10-07T13:50:13.456Z,100727.22
2017-10-07T13:52:40.293Z,100725.48
2017-10-07T13:55:07.139Z,100725.72
2017-10-07T13:57:34.782Z,100721.66
2017-10-07T14:00:01.920Z,100712.77
2017-10-07T14:02:28.793Z,100710.48
2017-10-07T14:04:55.662Z,100711.97
2017-10-07T14:07:22.516Z,100706.23
2017-10-07T14:09:49.356Z,100705.42
2017-10-07T14:12:16.199Z,100698.38
2017-10-07T14:14:43.757Z,100701.03
2017-10-07T14:17:10.620Z,100685.35
2017-10-07T14:19:37.465Z,100691.97
2017-10-07T14:22:04.314Z,100678.67
2017-10-07T14:24:31.136Z,100685.05
2017-10-07T14:26:57.974Z,100675.81
2017-10-07T14:29:25.563Z,100667.91
2017-10-07T14:31:52.554Z,100662.05
2017-10-07T14:34:19.396Z,100655.13
2017-10-07T14:36:46.219Z,100656.08
2017-10-07T14:39:15.319Z,100656.91
2017-10-07T14:41:42.303Z,100654.39
2017-10-07T14:44:10.169Z,100660.97
2017-10-07T14:46:37.835Z,100645.38
2017-10-07T14:49:04.661Z,100643.38
2017-10-07T14:51:31.526Z,100643.81
2017-10-07T14:53:58.488Z,100633.69
2017-10-07T14:56:25.308Z,100637.02
2017-10-07T14:58:52.151Z,100617.85
2017-10-07T15:01:19.019Z,100616.09
2017-10-07T15:03:45.902Z,100619.20
2017-10-07T15:06:14.303Z,100614.62
2017-10-07T15:08:41.864Z,100613.64
2017-10-07T15:11:09.285Z,100604.23
2017-10-07T15:13:37.000Z,100605.27
2017-10-07T15:16:03.856Z,100601.00
2017-10-07T15:18:31.600Z,100600.84
2017-10-07T15:20:58.431Z,100597.59
2017-10-07T15:23:25.280Z,100589.50
2017-10-07T15:25:52.186Z,100587.22
2017-10-07T15:28:19.039Z,100590.17
2017-10-07T15:30:45.921Z,100579.16
2017-10-07T15:33:12.783Z,100580.61
2017-10-07T15:35:39.650Z,100587.52
2017-10-07T15:38:06.500Z,100577.77
2017-10-07T15:40:33.543Z,100578.05
2017-10-07T15:43:01.158Z,100570.94
2017-10-07T15:45:28.022Z,100577.29
2017-10-07T15:47:54.872Z,100575.02
2017-10-07T15:50:21.704Z,100578.45
2017-10-07T15:52:49.335Z,100574.02
2017-10-07T15:55:16.203Z,100574.75
2017-10-07T15:57:43.138Z,100575.86
2017-10-07T16:00:09.972Z,100565.19
2017-10-07T16:02:37.566Z,100564.88
2017-10-07T16:05:04.469Z,100567.59
2017-10-07T16:07:31.342Z,100555.16
2017-10-07T16:09:58.248Z,100554.70
2017-10-07T16:12:25.853Z,100560.45
2017-10-07T16:14:52.691Z,100553.74
2017-10-07T16:17:19.521Z,100560.09
2017-10-07T16:19:46.391Z,100550.97
2017-10-07T16:22:13.997Z,100555.13
2017-10-07T16:24:40.845Z,100547.53
2017-10-07T16:27:07.675Z,100551.41
2017-10-07T16:29:36.363Z,100548.88
2017-10-07T16:32:03.179Z,100537.97
2017-10-07T16:34:30.003Z,100542.02
2017-10-07T16:36:56.813Z,100538.48
2017-10-07T16:39:23.683Z,100537.19
2017-10-07T16:41:50.494Z,100531.90
2017-10-07T16:44:18.362Z,100533.52
2017-10-07T16:46:45.241Z,100522.50
2017-10-07T16:49:12.206Z,100530.09
2017-10-07T16:51:39.763Z,100528.69
2017-10-07T16:54:06.659Z,100527.95
2017-10-07T16:56:34.299Z,100527.83
2017-10-07T16:59:01.128Z,100523.99
2017-10-07T17:01:27.974Z,100537.44
2017-10-07T17:03:54.814Z,100523.41
2017-10-07T17:06:22.401Z,100531.09
2017-10-07T17:08:49.224Z,100520.42
2017-10-07T17:11:16.043Z,100510.63
2017-10-07T17:13:42.824Z,100507.31
2017-10-07T17:16:10.543Z,100502.83
2017-10-07T17:18:37.376Z,100498.35
2017-10-07T17:21:04.264Z,100487.58
2017-10-07T17:23:31.105Z,100486.89
2017-10-07T17:25:57.910Z,100493.53
2017-10-07T17:28:24.766Z,100487.45
2017-10-07T17:30:52.321Z,100483.58
2017-10-07T17:33:19.151Z,100485.50
2017-10-07T17:35:45.993Z,100482.84
2017-10-07T17:38:12.843Z,100481.66
2017-10-07T17:40:39.687Z,100480.55
2017-10-07T17:43:07.247Z,100466.48
2017-10-07T17:45:34.097Z,100467.87
2017-10-07T17:48:00.918Z,100470.83
2017-10-07T17:50:27.811Z,100473.90
2017-10-07T17:52:54.665Z,100467.18
2017-10-07T17:55:21.496Z,100470.45
2017-10-07T17:57:48.326Z,100467.21
2017-10-07T18:00:15.913Z,100462.12
2017-10-07T18:02:42.743Z,100458.88
2017-10-07T18:05:09.590Z,100455.74
2017-10-07T18:07:36.440Z,100459.44
2017-10-07T18:10:03.338Z,100457.95
2017-10-07T18:12:30.230Z,100447.53
2017-10-07T18:14:57.064Z,100446.58
2017-10-07T18:17:23.882Z,100444.23
2017-10-07T18:19:50.775Z,100440.86
2017-10-07T18:22:17.588Z,100450.19
2017-10-07T18:24:44.401Z,100443.05
2017-10-07T18:27:11.992Z,100443.17
2017-10-07T18:29:39.626Z,100443.77
2017-10-07T18:32:06.822Z,100444.50
2017-10-07T18:34:33.857Z,100437.52
2017-10-07T18:37:00.792Z,100435.34
2017-10-07T18:39:27.858Z,100435.77
2017-10-07T18:41:54.744Z,100436.73
2017-10-07T18:44:21.673Z,100429.59
2017-10-07T18:46:48.615Z,100415.86
2017-10-07T18:49:16.952Z,100421.12
2017-10-07T18:51:44.163Z,100413.81
2017-10-07T18:54:11.070Z,100416.78
2017-10-07T18:56:37.964Z,100416.62
2017-10-07T18:59:04.816Z,100410.56
2017-10-07T19:01:31.802Z,100408.65
2017-10-07T19:03:58.728Z,100420.92
2017-10-07T19:06:25.644Z,100418.38
2017-10-07T19:08:52.556Z,100414.27
2017-10-07T19:11:19.686Z,100413.94
2017-10-07T19:13:47.592Z,100414.07
2017-10-07T19:16:14.894Z,100411.06
2017-10-07T19:18:41.878Z,100415.50
2017-10-07T19:21:08.766Z,100416.59
2017-10-07T19:23:35.658Z,100418.44
2017-10-07T19:26:02.510Z,100422.50
2017-10-07T19:28:30.152Z,100427.20
2017-10-07T19:30:57.009Z,100413.64
2017-10-07T19:33:23.993Z,100405.47
2017-10-07T19:35:51.658Z,100409.17
2017-10-07T19:38:18.646Z,100406.47
2017-10-07T19:40:45.513Z,100414.73
2017-10-07T19:43:13.182Z,100406.53
2017-10-07T19:45:40.753Z,100424.55
2017-10-07T19:48:07.562Z,100412.31
2017-10-07T19:50:34.416Z,100424.98
2017-10-07T19:53:01.236Z,100413.14
2017-10-07T19:55:28.909Z,100408.88
2017-10-07T19:57:55.759Z,100407.92
2017-10-07T20:00:22.604Z,100409.51
2017-10-07T20:02:49.443Z,100403.59
2017-10-07T20:05:16.279Z,100400.11
2017-10-07T20:07:43.867Z,100392.70
2017-10-07T20:10:11.445Z,100392.58
2017-10-07T20:12:38.288Z,100396.52
2017-10-07T20:15:05.196Z,100397.37
2017-10-07T20:17:32.059Z,100389.50
2017-10-07T20:19:58.904Z,100391.05
2017-10-07T20:22:25.751Z,100397.30
2017-10-07T20:24:53.334Z,100392.70
2017-10-07T20:27:20.131Z,100402.17
2017-10-07T20:29:47.000Z,100404.68
2017-10-07T20:32:13.825Z,100395.88
2017-10-07T20:34:40.675Z,100394.76
2017-10-07T20:37:07.739Z,100394.30
2017-10-07T20:39:34.539Z,100404.22
2017-10-07T20:42:01.496Z,100391.78
2017-10-07T20:44:28.349Z,100401.34
2017-10-07T20:46:55.204Z,100405.24
2017-10-07T20:49:22.024Z,100421.91
2017-10-07T20:51:48.885Z,100414.93
2017-10-07T20:54:15.773Z,100413.64
2017-10-07T20:56:43.355Z,100410.93
2017-10-07T20:59:10.248Z,100416.48
2017-10-07T21:01:37.086Z,100416.22
2017-10-07T21:04:03.908Z,100417.81
2017-10-07T21:06:30.747Z,100408.09
2017-10-07T21:08:57.720Z,100419.92
2017-10-07T21:11:24.584Z,100412.25
2017-10-07T21:13:51.408Z,100415.36
2017-10-07T21:16:18.269Z,100414.50
2017-10-07T21:18:45.103Z,100412.78
2017-10-07T21:21:12.694Z,100411.86
2017-10-07T21:23:39.511Z,100409.44
2017-10-07T21:26:06.355Z,100403.26
2017-10-07T21:28:33.192Z,100402.36
2017-10-07T21:31:00.047Z,100399.72
2017-10-07T21:33:26.945Z,100402.56
2017-10-07T21:35:53.777Z,100406.27
2017-10-07T21:38:20.609Z,100401.90
2017-10-07T21:40:47.502Z,100410.60
2017-10-07T21:43:14.330Z,100406.10
2017-10-07T21:45:42.107Z,100400.41
2017-10-07T21:48:09.692Z,100397.38
2017-10-07T21:50:36.530Z,100403.22
2017-10-07T21:53:03.444Z,100403.13
2017-10-07T21:55:30.251Z,100402.80
2017-10-07T21:57:57.096Z,100406.56
2017-10-07T22:00:23.934Z,100404.25
2017-10-07T22:02:50.728Z,100398.56
2017-10-07T22:05:17.595Z,100399.36
2017-10-07T22:07:44.461Z,100396.15
2017-10-07T22:10:12.076Z,100398.33
2017-10-07T22:12:38.944Z,100400.94
2017-10-07T22:15:05.778Z,100401.57
2017-10-07T22:17:33.359Z,100399.16
2017-10-07T22:20:00.980Z,100386.13
2017-10-07T22:22:27.807Z,100395.58
2017-10-07T22:24:54.652Z,100390.59
2017-10-07T22:27:22.258Z,100392.21
2017-10-07T22:29:49.084Z,100391.78
2017-10-07T22:32:16.662Z,100392.55
2017-10-07T22:34:43.482Z,100389.89
2017-10-07T22:37:10.331Z,100384.73
2017-10-07T22:39:37.909Z,100387.95
2017-10-07T22:42:05.502Z,100392.94
2017-10-07T22:44:32.375Z,100394.42
2017-10-07T22:46:59.222Z,100396.64
2017-10-07T22:49:26.034Z,100396.84
2017-10-07T22:51:53.631Z,100398.06
2017-10-07T22:54:20.439Z,100395.72
2017-10-07T22:56:47.259Z,100398.00
2017-10-07T22:59:14.077Z,100395.88
2017-10-07T23:01:40.918Z,100392.38
2017-10-07T23:04:07.782Z,100394.62
2017-10-07T23:06:34.620Z,100398.70
2017-10-07T23:09:01.453Z,100396.55
2017-10-07T23:11:28.374Z,100403.45
2017-10-07T23:13:55.253Z,100402.56
2017-10-07T23:16:22.779Z,100408.19
2017-10-07T23:18:49.609Z,100407.98
2017-10-07T23:21:16.446Z,100410.23
2017-10-07T23:23:43.999Z,100416.72
2017-10-07T23:26:10.830Z,100410.06
2017-10-07T23:28:37.642Z,100410.50
2017-10-07T23:31:04.503Z,100410.96
2017-10-07T23:33:31.306Z,100406.89
2017-10-07T23:35:58.115Z,100411.33
2017-10-07T23:38:24.974Z,100413.08
2017-10-07T23:40:51.833Z,100411.86
2017-10-07T23:43:18.632Z,100416.29
2017-10-07T23:45:45.433Z,100418.30
2017-10-07T23:48:12.274Z,100419.43
2017-10-07T23:50:39.093Z,100433.45
2017-10-07T23:53:05.908Z,100423.95
2017-10-07T23:55:32.730Z,100424.69
2017-10-07T23:58:00.263Z,100431.80
